Time;durP1;ratioP1;P1;durP2;ratioP2;P2;SDS_P1;SDS_P2;PMS_P1;PMS_P2;Temp;Humidity;BMP_temperature;BMP_pressure;BME280_temperature;BME280_humidity;BME280_pressure;Samples;Min_cycle;Max_cycle;Signal;HPM_P1;HPM_P2
2023/08/12 00:00:34;;;;;;;4.45;3.95;;;;;;;21.43;96.91;98745.63;4188092;28;20637;-48
2023/08/12 00:02:36;;;;;;;4.78;3.53;;;;;;;21.43;97.02;98740.06;4208573;28;20232;-48
2023/08/12 00:04:38;;;;;;;4.50;3.90;;;;;;;21.43;96.93;98745.63;4191633;28;20294;-49
2023/08/12 00:06:39;;;;;;;4.57;3.78;;;;;;;21.46;97.07;98745.00;4188297;28;20256;-48
2023/08/12 00:08:41;;;;;;;4.35;3.92;;;;;;;21.34;97.55;98747.50;4187084;28;20213;-49
2023/08/12 00:10:43;;;;;;;3.95;3.65;;;;;;;21.39;97.92;98745.41;4187643;28;20710;-50
2023/08/12 00:12:45;;;;;;;4.55;3.97;;;;;;;21.41;98.23;98745.94;4201878;28;20321;-48
2023/08/12 00:14:47;;;;;;;3.83;3.33;;;;;;;21.09;100.00;98736.94;4186114;28;20264;-48
2023/08/12 00:16:48;;;;;;;3.90;3.60;;;;;;;21.10;100.00;98735.81;4183369;28;20215;-49
2023/08/12 00:18:50;;;;;;;7.07;4.07;;;;;;;21.12;100.00;98734.34;4184952;28;20210;-49
2023/08/12 00:20:53;;;;;;;4.45;3.55;;;;;;;21.08;99.90;98738.06;4188346;28;20222;-50
2023/08/12 00:22:55;;;;;;;3.45;3.15;;;;;;;21.13;99.91;98735.19;4186622;28;20758;-49
2023/08/12 00:24:57;;;;;;;10.32;4.28;;;;;;;21.15;99.95;98728.19;4201844;28;20202;-50
2023/08/12 00:26:58;;;;;;;5.47;3.58;;;;;;;21.26;99.08;98728.75;4186967;28;20207;-49
2023/08/12 00:29:00;;;;;;;4.28;3.95;;;;;;;21.30;99.96;98727.00;4189727;28;20260;-50
2023/08/12 00:31:02;;;;;;;3.50;3.20;;;;;;;21.10;100.00;98724.69;4184320;28;20207;-49
2023/08/12 00:33:04;;;;;;;4.43;3.75;;;;;;;20.93;100.00;98718.94;4170067;28;20223;-49
2023/08/12 00:35:06;;;;;;;5.50;3.90;;;;;;;20.91;100.00;98716.47;4198135;28;20234;-49
2023/08/12 00:37:08;;;;;;;3.95;3.17;;;;;;;20.94;100.00;98726.16;4200766;28;20275;-50
2023/08/12 00:39:10;;;;;;;4.72;2.90;;;;;;;21.04;100.00;98725.94;4187009;28;20211;-49
2023/08/12 00:41:12;;;;;;;3.72;3.42;;;;;;;21.08;100.00;98726.94;4186909;28;20195;-50
2023/08/12 00:43:13;;;;;;;3.50;3.20;;;;;;;21.16;100.00;98728.97;4188295;28;20222;-49
2023/08/12 00:45:15;;;;;;;3.90;3.55;;;;;;;21.19;99.88;98731.97;4196391;28;20699;-51
2023/08/12 00:47:17;;;;;;;4.85;4.35;;;;;;;21.24;99.68;98736.63;4186344;28;20732;-49
2023/08/12 00:49:19;;;;;;;3.30;3.00;;;;;;;21.24;99.61;98742.19;4187486;28;20740;-49
2023/08/12 00:51:21;;;;;;;4.45;3.08;;;;;;;21.22;100.00;98744.44;4202223;28;20253;-50
2023/08/12 00:53:23;;;;;;;4.75;3.33;;;;;;;21.29;100.00;98745.66;4198535;28;20592;-49
2023/08/12 00:55:24;;;;;;;4.75;3.72;;;;;;;21.02;100.00;98756.03;4198878;28;20213;-49
2023/08/12 00:57:26;;;;;;;3.83;3.50;;;;;;;21.12;100.00;98762.19;4168854;28;20737;-49
2023/08/12 00:59:28;;;;;;;3.70;3.40;;;;;;;21.16;100.00;98765.16;4185451;28;20214;-49
2023/08/12 01:01:30;;;;;;;3.55;3.25;;;;;;;21.18;100.00;98765.69;4186838;28;20203;-49
2023/08/12 01:03:32;;;;;;;8.73;3.40;;;;;;;21.16;100.00;98767.94;4187311;28;20395;-49
2023/08/12 01:05:34;;;;;;;4.03;3.58;;;;;;;21.17;100.00;98769.63;4186662;28;20217;-49
2023/08/12 01:07:39;;;;;;;4.30;3.50;;;;;;;21.16;100.00;98767.94;4188344;28;20206;-48
2023/08/12 01:09:41;;;;;;;4.28;3.88;;;;;;;21.18;100.00;98771.28;4185934;28;20211;-49
2023/08/12 01:11:51;;;;;;;3.95;3.65;;;;;;;21.19;100.00;98772.91;4183687;28;20239;-50
2023/08/12 01:14:31;;;;;;;5.55;3.70;;;;;;;21.24;100.00;98776.41;4185929;28;20688;-48
2023/08/12 01:16:35;;;;;;;3.92;3.72;;;;;;;21.15;100.00;98777.44;4197967;28;20829;-49
2023/08/12 01:18:38;;;;;;;3.58;3.28;;;;;;;21.21;100.00;98776.19;4185353;28;20218;-50
2023/08/12 01:20:40;;;;;;;5.32;3.80;;;;;;;21.16;100.00;98773.53;4184230;28;20218;-50
2023/08/12 01:22:44;;;;;;;4.03;3.63;;;;;;;21.16;100.00;98770.75;4187466;28;20617;-49
2023/08/12 01:24:46;;;;;;;3.30;2.97;;;;;;;21.16;100.00;98767.94;4182301;28;20964;-49
2023/08/12 01:26:47;;;;;;;4.03;3.58;;;;;;;21.07;100.00;98775.41;4190993;28;20220;-49
2023/08/12 01:28:49;;;;;;;4.35;3.92;;;;;;;21.16;100.00;98773.53;4181341;28;20293;-48
2023/08/12 01:30:53;;;;;;;4.53;3.80;;;;;;;20.91;100.00;98788.00;4186715;28;20206;-49
2023/08/12 01:33:45;;;;;;;5.43;4.03;;;;;;;20.81;100.00;98788.16;4186688;28;20230;-50
2023/08/12 01:36:00;;;;;;;4.05;3.70;;;;;;;20.95;100.00;98777.88;4168821;28;20669;-50
2023/08/12 01:38:04;;;;;;;4.93;3.95;;;;;;;20.76;100.00;98779.91;4192308;28;20199;-48
2023/08/12 01:40:06;;;;;;;3.65;3.28;;;;;;;20.85;100.00;98780.88;4204712;28;20287;-49
2023/08/12 01:42:08;;;;;;;6.30;4.03;;;;;;;20.97;100.00;98778.41;4189917;28;20654;-49
2023/08/12 01:44:10;;;;;;;6.85;3.80;;;;;;;20.77;100.00;98781.59;4188865;28;20611;-49
2023/08/12 01:46:12;;;;;;;4.55;4.15;;;;;;;20.87;100.00;98787.81;4186711;28;20210;-50
2023/08/12 01:48:13;;;;;;;8.93;5.45;;;;;;;20.76;100.00;98791.03;4186756;28;20280;-49
2023/08/12 01:50:15;;;;;;;5.38;4.97;;;;;;;20.88;100.00;98788.59;4170817;28;20215;-49
2023/08/12 01:52:17;;;;;;;5.63;5.20;;;;;;;20.79;100.00;98796.00;4186655;28;20409;-48
2023/08/12 01:54:19;;;;;;;5.15;4.72;;;;;;;20.87;100.00;98798.06;4183879;28;20207;-49
2023/08/12 01:56:21;;;;;;;5.38;4.97;;;;;;;20.83;100.00;98799.81;4187659;28;20203;-50
2023/08/12 01:58:23;;;;;;;6.03;5.50;;;;;;;20.78;100.00;98799.94;4174340;28;20254;-49
2023/08/12 02:00:25;;;;;;;5.25;4.80;;;;;;;20.69;100.00;98804.53;4188511;28;20732;-49
2023/08/12 02:02:29;;;;;;;5.13;4.63;;;;;;;20.60;100.00;98798.91;4190231;28;20187;-48
2023/08/12 02:04:31;;;;;;;8.10;4.72;;;;;;;20.64;100.00;98811.03;4188885;28;20199;-47
2023/08/12 02:06:33;;;;;;;6.60;5.88;;;;;;;20.71;100.00;98816.22;4190221;28;20214;-47
2023/08/12 02:08:35;;;;;;;5.85;5.35;;;;;;;20.70;100.00;98806.22;4189319;28;20211;-47
2023/08/12 02:10:36;;;;;;;5.78;5.22;;;;;;;20.62;100.00;98801.34;4202195;28;20202;-48
2023/08/12 02:12:38;;;;;;;6.82;4.88;;;;;;;20.69;100.00;98799.81;4190124;28;20242;-48
2023/08/12 02:14:40;;;;;;;5.90;5.35;;;;;;;20.77;100.00;98793.53;4192931;28;20661;-49
2023/08/12 02:16:42;;;;;;;7.20;6.68;;;;;;;20.77;100.00;98787.16;4190841;28;20206;-48
2023/08/12 02:18:43;;;;;;;5.70;5.20;;;;;;;20.52;100.00;98779.31;4188069;28;20207;-49
2023/08/12 02:20:47;;;;;;;5.53;5.05;;;;;;;20.59;100.00;98779.72;4205477;28;20664;-47
2023/08/12 02:22:49;;;;;;;5.18;4.78;;;;;;;20.36;100.00;98769.59;4189437;28;20226;-47
2023/08/12 02:24:51;;;;;;;6.55;5.85;;;;;;;20.23;100.00;98757.34;4189705;28;20211;-49
2023/08/12 02:26:53;;;;;;;6.20;5.70;;;;;;;20.38;100.00;98745.13;4187694;28;20217;-47
2023/08/12 02:28:55;;;;;;;10.00;6.07;;;;;;;20.44;100.00;98738.31;4190288;28;20538;-48
2023/08/12 02:30:56;;;;;;;6.95;6.35;;;;;;;20.37;100.00;98735.13;4188900;28;20215;-47
2023/08/12 02:32:58;;;;;;;6.07;5.35;;;;;;;20.47;100.00;98732.13;4185232;28;20798;-47
2023/08/12 02:35:00;;;;;;;9.32;5.50;;;;;;;20.59;100.00;98736.03;4189654;28;20215;-48
2023/08/12 02:37:02;;;;;;;6.85;4.72;;;;;;;20.47;100.00;98730.19;4190366;28;20268;-48
2023/08/12 02:39:04;;;;;;;5.68;5.28;;;;;;;20.43;100.00;98731.09;4185472;28;20200;-47
2023/08/12 02:41:06;;;;;;;6.60;6.00;;;;;;;20.19;100.00;98724.91;4189635;28;20210;-48
2023/08/12 02:43:10;;;;;;;6.65;6.15;;;;;;;20.25;100.00;98723.69;4185221;28;20230;-48
2023/08/12 02:45:12;;;;;;;5.25;4.90;;;;;;;20.38;100.00;98734.00;4198809;28;20221;-47
2023/08/12 02:47:13;;;;;;;5.55;5.00;;;;;;;20.50;100.00;98731.53;4204332;28;20210;-48
2023/08/12 02:49:15;;;;;;;5.82;5.35;;;;;;;20.53;100.00;98733.69;4187329;28;20210;-47
2023/08/12 02:51:17;;;;;;;7.07;6.45;;;;;;;20.29;100.00;98731.09;4186343;28;20735;-48
2023/08/12 02:53:19;;;;;;;6.88;6.28;;;;;;;20.14;100.00;98733.34;4184659;28;20319;-48
2023/08/12 02:55:24;;;;;;;6.57;5.97;;;;;;;20.19;100.00;98736.84;4186762;28;20206;-48
2023/08/12 02:57:25;;;;;;;6.22;5.43;;;;;;;20.26;100.00;98742.00;4184485;28;20281;-48
2023/08/12 02:59:29;;;;;;;6.95;4.82;;;;;;;20.45;100.00;98739.97;4188915;28;20199;-49
2023/08/12 03:01:31;;;;;;;6.05;5.55;;;;;;;20.57;100.00;98737.50;4187113;28;20206;-47
2023/08/12 03:03:33;;;;;;;5.82;5.32;;;;;;;20.60;100.00;98729.38;4191595;28;20245;-48
2023/08/12 03:05:35;;;;;;;12.13;5.80;;;;;;;20.44;100.00;98732.75;4196277;28;20202;-48
2023/08/12 03:07:37;;;;;;;4.45;4.05;;;;;;;20.47;100.00;98726.56;4193199;28;20211;-47
2023/08/12 03:09:38;;;;;;;6.00;5.50;;;;;;;20.52;100.00;98724.50;4192607;28;20199;-48
2023/08/12 03:11:40;;;;;;;4.82;4.35;;;;;;;20.59;100.00;98724.91;4191683;28;20206;-48
2023/08/12 03:13:42;;;;;;;5.97;4.90;;;;;;;20.63;100.00;98722.34;4188550;28;20230;-48
2023/08/12 03:15:44;;;;;;;5.63;5.22;;;;;;;20.65;100.00;98729.22;4186266;28;20264;-48
2023/08/12 03:17:45;;;;;;;4.80;4.47;;;;;;;20.67;100.00;98715.03;4185227;28;20210;-48
2023/08/12 03:19:48;;;;;;;4.47;4.10;;;;;;;20.70;100.00;98706.88;4184727;28;20301;-48
2023/08/12 03:21:50;;;;;;;5.25;4.47;;;;;;;20.71;100.00;98721.63;4183565;28;20195;-48
2023/08/12 03:23:52;;;;;;;5.70;5.20;;;;;;;20.79;100.00;98712.53;4181855;28;20237;-47
2023/08/12 03:25:53;;;;;;;132.00;10.35;;;;;;;20.73;100.00;98711.00;4203685;28;20207;-48
2023/08/12 03:27:55;;;;;;;771.75;96.65;;;;;;;20.67;100.00;98709.47;4192029;28;21644;-48
2023/08/12 03:29:57;;;;;;;1999.90;999.90;;;;;;;20.59;100.00;98708.22;4175227;28;20207;-49
2023/08/12 03:31:59;;;;;;;1092.13;104.47;;;;;;;20.60;100.00;98703.50;4185944;28;20206;-48
2023/08/12 03:34:01;;;;;;;7.53;6.82;;;;;;;20.67;100.00;98698.34;4193033;28;20230;-48
2023/08/12 03:36:03;;;;;;;7.03;6.15;;;;;;;20.53;100.00;98703.09;4192138;28;20599;-48
2023/08/12 03:38:04;;;;;;;8.13;5.97;;;;;;;20.44;100.00;98711.31;4185263;28;20291;-48
2023/08/12 03:40:07;;;;;;;502.95;59.17;;;;;;;20.46;100.00;98706.31;4183698;28;20222;-48
2023/08/12 03:42:09;;;;;;;6.40;5.78;;;;;;;20.50;100.00;98703.72;4209250;28;20701;-49
2023/08/12 03:44:10;;;;;;;6.82;6.20;;;;;;;20.58;100.00;98700.22;4209084;28;20210;-48
2023/08/12 03:46:12;;;;;;;6.57;5.97;;;;;;;20.54;100.00;98699.16;4190839;28;20260;-47
2023/08/12 03:48:14;;;;;;;6.40;5.90;;;;;;;20.42;100.00;98704.41;4197341;28;20214;-48
2023/08/12 03:50:16;;;;;;;6.28;5.60;;;;;;;20.46;100.00;98703.53;4193762;28;20215;-48
2023/08/12 03:52:18;;;;;;;6.03;5.10;;;;;;;20.50;100.00;98710.09;4194885;28;20225;-48
2023/08/12 03:54:19;;;;;;;6.15;5.65;;;;;;;20.61;100.00;98694.00;4192953;28;20207;-49
2023/08/12 03:56:21;;;;;;;6.32;5.80;;;;;;;20.39;100.00;98699.50;4195323;28;20207;-49
2023/08/12 03:58:23;;;;;;;6.15;5.50;;;;;;;20.42;100.00;98705.25;4178113;28;20219;-48
2023/08/12 04:00:24;;;;;;;6.50;5.40;;;;;;;20.37;100.00;98693.44;4178177;28;20210;-48
2023/08/12 04:02:26;;;;;;;6.35;5.78;;;;;;;20.39;100.00;98697.50;4193272;28;20264;-49
2023/08/12 04:04:31;;;;;;;6.90;6.30;;;;;;;20.39;100.00;98691.16;4192091;28;20238;-49
2023/08/12 04:06:33;;;;;;;278.90;15.60;;;;;;;20.44;100.00;98699.41;4194456;28;20631;-48
2023/08/12 04:08:34;;;;;;;6.45;5.85;;;;;;;20.36;100.00;98697.31;4187467;28;20211;-47
2023/08/12 04:10:36;;;;;;;543.63;33.10;;;;;;;20.28;100.00;98698.03;4193293;28;20203;-48
2023/08/12 04:12:40;;;;;;;7.43;6.82;;;;;;;20.33;100.00;98692.38;4195976;28;20769;-49
2023/08/12 04:14:41;;;;;;;8.10;6.60;;;;;;;20.02;100.00;98685.72;4193449;28;20241;-48
2023/08/12 04:16:43;;;;;;;7.05;6.45;;;;;;;19.81;100.00;98690.84;4193018;28;20207;-48
2023/08/12 04:18:45;;;;;;;7.72;7.13;;;;;;;19.95;100.00;98690.88;4193518;28;20291;-49
2023/08/12 04:20:48;;;;;;;7.07;6.38;;;;;;;19.97;100.00;98686.66;4192482;28;20566;-48
2023/08/12 04:22:50;;;;;;;8.18;7.38;;;;;;;19.89;100.00;98687.38;4191088;28;20687;-49
2023/08/12 04:24:52;;;;;;;8.23;7.63;;;;;;;19.83;100.00;98688.59;4185561;28;20265;-48
2023/08/12 04:26:53;;;;;;;8.07;7.47;;;;;;;19.70;100.00;98686.59;4183931;28;20238;-48
2023/08/12 04:28:55;;;;;;;7.25;6.55;;;;;;;19.78;100.00;98690.66;4185709;28;20204;-49
2023/08/12 04:30:57;;;;;;;6.97;6.40;;;;;;;19.90;100.00;98671.53;4192240;28;20215;-48
2023/08/12 04:32:59;;;;;;;7.93;6.00;;;;;;;19.86;100.00;98676.03;4175442;28;20725;-49
2023/08/12 04:35:00;;;;;;;7.60;7.00;;;;;;;19.88;100.00;98679.34;4193142;28;20731;-49
2023/08/12 04:37:02;;;;;;;7.43;6.70;;;;;;;19.94;100.00;98678.09;4205548;28;20290;-49
2023/08/12 04:39:04;;;;;;;6.43;5.88;;;;;;;19.97;100.00;98674.75;4191372;28;20261;-47
2023/08/12 04:41:06;;;;;;;5.55;5.13;;;;;;;20.01;100.00;98678.53;4168357;28;20624;-48
2023/08/12 04:43:09;;;;;;;5.22;4.82;;;;;;;20.03;100.00;98671.53;4199766;28;20223;-49
2023/08/12 04:45:11;;;;;;;5.43;5.03;;;;;;;20.05;100.00;98674.03;4192060;28;20211;-48
2023/08/12 04:47:13;;;;;;;6.13;5.68;;;;;;;20.05;100.00;98669.31;4180882;28;20210;-49
2023/08/12 04:49:15;;;;;;;5.60;5.10;;;;;;;20.06;100.00;98667.34;4179621;28;20210;-49
2023/08/12 04:51:17;;;;;;;5.80;5.20;;;;;;;20.06;100.00;98670.13;4190051;28;20285;-49
2023/08/12 04:53:18;;;;;;;601.40;88.65;;;;;;;20.08;100.00;98673.41;4191796;28;20789;-50
2023/08/12 04:55:20;;;;;;;736.42;168.52;;;;;;;20.10;100.00;98660.88;4191816;28;20211;-50
2023/08/12 04:57:22;;;;;;;161.63;26.25;;;;;;;20.16;100.00;98658.81;4171152;28;20208;-50
2023/08/12 04:59:26;;;;;;;7.50;7.00;;;;;;;20.06;100.00;98664.56;4182009;28;20249;-49
2023/08/12 05:01:28;;;;;;;855.53;77.85;;;;;;;20.09;100.00;98658.38;4181349;28;20207;-49
2023/08/12 05:03:30;;;;;;;5.47;5.07;;;;;;;20.05;100.00;98658.19;4209046;28;20221;-49
2023/08/12 05:05:32;;;;;;;5.55;5.05;;;;;;;20.10;100.00;98658.09;4190682;28;20271;-49
2023/08/12 05:07:34;;;;;;;6.28;5.03;;;;;;;20.13;100.00;98662.22;4192134;28;20656;-48
2023/08/12 05:09:37;;;;;;;6.88;5.95;;;;;;;20.16;100.00;98658.81;4190919;28;20612;-49
2023/08/12 05:11:39;;;;;;;6.50;6.05;;;;;;;20.20;100.00;98659.84;4192007;28;20245;-49
2023/08/12 05:13:40;;;;;;;6.35;5.75;;;;;;;20.25;100.00;98665.31;4192370;28;20223;-49
2023/08/12 05:15:46;;;;;;;5.93;5.53;;;;;;;20.30;100.00;98665.22;4191696;28;20202;-49
2023/08/12 05:17:48;;;;;;;6.47;5.88;;;;;;;20.41;100.00;98655.50;4182626;28;20222;-49
2023/08/12 05:19:50;;;;;;;6.25;5.63;;;;;;;20.46;100.00;98652.63;4192541;28;20963;-48
2023/08/12 05:21:52;;;;;;;5.70;5.20;;;;;;;20.52;100.00;98652.19;4175501;28;20219;-49
2023/08/12 05:23:53;;;;;;;6.28;5.78;;;;;;;20.54;100.00;98660.25;4176683;28;20281;-49
2023/08/12 05:25:55;;;;;;;5.63;5.13;;;;;;;20.52;100.00;98659.75;4191916;28;20213;-49
2023/08/12 05:27:57;;;;;;;6.38;5.70;;;;;;;20.54;100.00;98660.25;4190537;28;20730;-49
2023/08/12 05:29:58;;;;;;;6.53;6.13;;;;;;;20.64;100.00;98660.03;4190772;28;20215;-48
2023/08/12 05:32:00;;;;;;;5.57;5.18;;;;;;;20.58;100.00;98661.28;4193209;28;20210;-50
2023/08/12 05:34:02;;;;;;;5.68;5.28;;;;;;;20.57;100.00;98656.84;4195121;28;20234;-49
2023/08/12 05:36:04;;;;;;;6.10;5.70;;;;;;;20.59;100.00;98651.78;4179836;28;20219;-48
2023/08/12 05:38:09;;;;;;;6.85;6.25;;;;;;;20.64;100.00;98648.91;4193545;28;20259;-49
2023/08/12 05:40:11;;;;;;;6.20;5.60;;;;;;;20.63;100.00;98652.81;4179338;28;20237;-50
2023/08/12 05:42:13;;;;;;;6.25;5.85;;;;;;;20.60;100.00;98654.28;4193571;28;20206;-49
2023/08/12 05:44:15;;;;;;;6.00;5.35;;;;;;;20.59;100.00;98658.16;4193571;28;20708;-50
2023/08/12 05:46:16;;;;;;;6.22;5.72;;;;;;;20.58;100.00;98658.50;4178392;28;20207;-48
2023/08/12 05:48:18;;;;;;;6.22;5.65;;;;;;;20.64;100.00;98665.59;4210988;28;20202;-48
2023/08/12 05:50:20;;;;;;;5.53;5.03;;;;;;;20.57;100.00;98665.19;4195840;28;20548;-48
2023/08/12 05:52:22;;;;;;;5.28;4.88;;;;;;;20.57;100.00;98659.63;4195486;28;20213;-49
2023/08/12 05:54:23;;;;;;;6.68;5.63;;;;;;;20.54;100.00;98665.81;4195618;28;20234;-50
2023/08/12 05:56:25;;;;;;;6.75;6.05;;;;;;;20.49;100.00;98668.69;4193837;28;20707;-48
2023/08/12 05:58:27;;;;;;;5.70;5.30;;;;;;;20.49;100.00;98669.50;4194574;28;20210;-48
2023/08/12 06:00:29;;;;;;;8.90;5.15;;;;;;;20.44;100.00;98671.59;4188187;28;20314;-50
2023/08/12 06:02:31;;;;;;;6.88;6.28;;;;;;;20.48;100.00;98672.59;4195327;28;20211;-50
2023/08/12 06:04:33;;;;;;;6.55;6.05;;;;;;;20.61;100.00;98672.59;4194844;28;20752;-48
2023/08/12 06:06:35;;;;;;;8.13;7.43;;;;;;;20.55;100.00;98667.44;4195372;28;20233;-49
2023/08/12 06:08:36;;;;;;;6.82;6.28;;;;;;;20.56;100.00;98671.88;4179036;28;20648;-49
2023/08/12 06:10:38;;;;;;;7.13;6.63;;;;;;;20.58;100.00;98677.97;4191649;28;20280;-52
2023/08/12 06:12:41;;;;;;;6.35;5.95;;;;;;;20.65;100.00;98681.16;4195289;28;20236;-49
2023/08/12 06:14:43;;;;;;;7.32;6.53;;;;;;;20.72;100.00;98678.75;4210968;28;20261;-49
2023/08/12 06:16:44;;;;;;;7.50;7.00;;;;;;;20.72;100.00;98679.56;4194310;28;20210;-50
2023/08/12 06:18:47;;;;;;;7.72;7.13;;;;;;;20.79;100.00;98679.16;4188174;28;20219;-50
2023/08/12 06:20:48;;;;;;;7.10;6.60;;;;;;;20.96;100.00;98682.13;4176383;28;20207;-53
2023/08/12 06:22:51;;;;;;;9.10;8.30;;;;;;;21.06;100.00;98684.69;4194252;28;20222;-50
2023/08/12 06:24:53;;;;;;;7.13;6.43;;;;;;;21.14;100.00;98689.50;4196053;28;20207;-52
2023/08/12 06:26:54;;;;;;;7.28;6.75;;;;;;;21.14;100.00;98681.16;4194621;28;20297;-48
2023/08/12 06:28:56;;;;;;;8.10;7.53;;;;;;;21.29;100.00;98689.13;4188020;28;20206;-49
2023/08/12 06:30:58;;;;;;;6.30;5.90;;;;;;;21.34;100.00;98689.03;4195870;28;20222;-49
2023/08/12 06:33:00;;;;;;;9.07;8.38;;;;;;;21.33;100.00;98684.59;4193718;28;20230;-49
2023/08/12 06:35:02;;;;;;;8.40;7.60;;;;;;;21.27;100.00;98683.06;4186292;28;20215;-49
2023/08/12 06:37:03;;;;;;;8.68;7.97;;;;;;;21.28;100.00;98687.50;4189503;28;20210;-51
2023/08/12 06:39:05;;;;;;;7.13;6.63;;;;;;;21.30;100.00;98682.47;4187091;28;20219;-49
2023/08/12 06:41:07;;;;;;;8.30;7.70;;;;;;;21.21;100.00;98681.53;4184347;28;20215;-50
2023/08/12 06:43:09;;;;;;;9.15;8.38;;;;;;;21.17;100.00;98683.31;4192798;28;20611;-48
2023/08/12 06:45:11;;;;;;;7.65;7.15;;;;;;;21.20;100.00;98686.31;4194694;28;20214;-51
2023/08/12 06:47:13;;;;;;;7.78;7.22;;;;;;;21.21;100.00;98684.31;4184865;28;20303;-49
2023/08/12 06:49:15;;;;;;;8.05;7.45;;;;;;;21.24;100.00;98676.16;4192578;28;20214;-52
2023/08/12 06:51:17;;;;;;;6.68;6.05;;;;;;;21.28;100.00;98684.72;4192197;28;20221;-49
2023/08/12 06:53:19;;;;;;;6.88;6.00;;;;;;;21.28;100.00;98690.28;4192924;28;20238;-50
2023/08/12 06:55:21;;;;;;;6.28;5.78;;;;;;;21.34;100.00;98697.38;4193095;28;20211;-48
2023/08/12 06:57:23;;;;;;;6.82;6.20;;;;;;;21.38;100.00;98690.06;4209177;28;20209;-49
2023/08/12 06:59:24;;;;;;;7.63;7.03;;;;;;;21.38;100.00;98687.28;4194440;28;20207;-49
2023/08/12 07:01:26;;;;;;;9.10;8.40;;;;;;;21.44;100.00;98697.94;4174673;28;20216;-51
2023/08/12 07:03:28;;;;;;;11.23;10.40;;;;;;;21.36;100.00;98689.53;4181535;28;20281;-49
2023/08/12 07:05:30;;;;;;;10.30;9.45;;;;;;;21.71;100.00;98697.03;4189482;28;20242;-48
2023/08/12 07:07:31;;;;;;;8.82;8.13;;;;;;;21.92;100.00;98698.16;4188677;28;21035;-50
2023/08/12 07:09:33;;;;;;;9.23;8.57;;;;;;;21.96;100.00;98699.97;4184731;28;20595;-49
2023/08/12 07:11:35;;;;;;;8.38;7.55;;;;;;;22.03;100.00;98707.91;4183164;28;20206;-51
2023/08/12 07:13:36;;;;;;;7.30;6.60;;;;;;;21.98;100.00;98706.06;4192277;28;20226;-49
2023/08/12 07:15:38;;;;;;;10.02;6.20;;;;;;;22.00;100.00;98705.75;4195392;28;20203;-50
2023/08/12 07:17:40;;;;;;;7.60;7.00;;;;;;;22.06;100.00;98696.09;4176856;28;20237;-48
2023/08/12 07:19:42;;;;;;;7.30;6.80;;;;;;;22.10;100.00;98697.13;4189483;28;20217;-49
2023/08/12 07:21:43;;;;;;;8.43;7.75;;;;;;;22.17;100.00;98705.84;4189245;28;20211;-49
2023/08/12 07:23:45;;;;;;;8.65;7.95;;;;;;;22.19;100.00;98709.13;4180895;28;20223;-51
2023/08/12 07:26:03;;;;;;;8.32;7.18;;;;;;;22.27;100.00;98716.72;4193323;28;20633;-50
2023/08/12 07:28:06;;;;;;;7.72;7.07;;;;;;;22.35;100.00;98707.56;4193880;28;20206;-50
2023/08/12 07:30:08;;;;;;;7.60;7.05;;;;;;;22.44;100.00;98705.69;4193723;28;20272;-49
2023/08/12 07:32:10;;;;;;;7.22;6.72;;;;;;;22.39;100.00;98709.41;4184536;28;20265;-49
2023/08/12 07:34:13;;;;;;;8.95;8.23;;;;;;;22.40;100.00;98704.63;4190316;28;20230;-50
2023/08/12 07:36:14;;;;;;;8.80;7.00;;;;;;;22.23;100.00;98716.53;4194082;28;20325;-50
2023/08/12 07:38:16;;;;;;;7.40;6.82;;;;;;;22.21;100.00;98718.00;4195627;28;20207;-51
2023/08/12 07:40:18;;;;;;;7.05;6.35;;;;;;;22.19;100.00;98714.72;4187589;28;20288;-52
2023/08/12 07:42:20;;;;;;;11.73;7.15;;;;;;;22.17;100.00;98723.38;4210247;28;20358;-48
2023/08/12 07:44:22;;;;;;;8.93;8.23;;;;;;;22.09;100.00;98726.94;4194776;28;20211;-49
2023/08/12 07:46:23;;;;;;;7.85;7.35;;;;;;;22.06;100.00;98726.78;4193790;28;20210;-49
2023/08/12 07:48:25;;;;;;;9.80;9.07;;;;;;;22.04;100.00;98729.06;4193353;28;20749;-49
2023/08/12 07:50:27;;;;;;;16.33;9.23;;;;;;;22.10;100.00;98728.59;4169792;28;20211;-49
2023/08/12 07:52:29;;;;;;;70.53;11.05;;;;;;;21.86;100.00;98732.88;4185002;28;20241;-50
2023/08/12 07:54:30;;;;;;;9.45;8.73;;;;;;;21.65;100.00;98720.56;4184050;28;20270;-49
2023/08/12 07:56:32;;;;;;;8.77;7.95;;;;;;;21.71;100.00;98722.13;4184232;28;20211;-50
2023/08/12 07:58:34;;;;;;;8.77;8.02;;;;;;;21.78;100.00;98714.94;4208700;28;20206;-49
2023/08/12 08:00:35;;;;;;;9.60;8.90;;;;;;;21.75;100.00;98709.19;4191716;28;20255;-49
2023/08/12 08:02:38;;;;;;;9.95;7.88;;;;;;;22.11;100.00;98707.94;4199274;28;20284;-50
2023/08/12 08:04:40;;;;;;;9.13;8.20;;;;;;;21.78;100.00;98703.00;4192833;28;20202;-48
2023/08/12 08:06:41;;;;;;;9.52;8.80;;;;;;;21.80;100.00;98695.97;4187859;28;20229;-49
2023/08/12 08:08:43;;;;;;;9.18;8.43;;;;;;;22.17;100.00;98686.34;4184528;28;20233;-49
2023/08/12 08:10:45;;;;;;;9.35;7.63;;;;;;;22.17;100.00;98683.53;4190362;28;20206;-48
2023/08/12 08:12:47;;;;;;;7.85;7.22;;;;;;;22.51;100.00;98680.91;4193362;28;20242;-49
2023/08/12 08:14:48;;;;;;;10.00;8.43;;;;;;;23.05;100.00;98683.16;4176718;28;20230;-49
2023/08/12 08:16:50;;;;;;;10.35;7.90;;;;;;;23.71;100.00;98686.31;4193062;28;20294;-48
2023/08/12 08:18:52;;;;;;;8.68;7.93;;;;;;;23.62;100.00;98693.06;4184561;28;20244;-49
2023/08/12 08:20:54;;;;;;;210.55;12.15;;;;;;;23.65;100.00;98693.22;4192976;28;20631;-48
2023/08/12 08:22:55;;;;;;;10.73;7.65;;;;;;;23.63;100.00;98689.13;4186844;28;20230;-49
2023/08/12 08:24:57;;;;;;;8.73;7.93;;;;;;;23.61;100.00;98697.00;4186188;28;20203;-49
2023/08/12 08:26:59;;;;;;;7.47;6.88;;;;;;;23.53;100.00;98695.03;4183854;28;20262;-48
2023/08/12 08:29:01;;;;;;;8.23;7.45;;;;;;;23.89;100.00;98689.94;4209587;28;20222;-48
2023/08/12 08:31:03;;;;;;;45.20;9.57;;;;;;;24.10;100.00;98695.31;4192224;28;20583;-52
2023/08/12 08:33:05;;;;;;;9.23;6.38;;;;;;;24.55;100.00;98690.88;4192642;28;20698;-50
2023/08/12 08:35:07;;;;;;;222.52;25.50;;;;;;;24.59;100.00;98689.03;4193413;28;20288;-49
2023/08/12 08:37:09;;;;;;;747.95;98.75;;;;;;;24.59;100.00;98693.84;4185288;28;20211;-49
2023/08/12 08:39:11;;;;;;;5.97;5.55;;;;;;;24.43;100.00;98687.94;4189652;28;20268;-50
2023/08/12 08:41:16;;;;;;;1651.30;773.95;;;;;;;24.54;100.00;98691.19;4191522;28;20229;-51
2023/08/12 08:43:22;;;;;;;1325.40;346.92;;;;;;;24.99;100.00;98678.28;4187807;28;20296;-49
2023/08/12 08:45:24;;;;;;;5.60;5.18;;;;;;;25.13;100.00;98679.66;4194076;28;20613;-50
2023/08/12 08:47:27;;;;;;;5.63;5.10;;;;;;;24.91;100.00;98687.53;4176387;28;20261;-50
2023/08/12 08:49:30;;;;;;;230.95;190.18;;;;;;;25.27;100.00;98685.81;4209560;28;20762;-50
2023/08/12 08:51:32;;;;;;;47.00;19.77;;;;;;;25.14;100.00;98691.69;4192735;28;20265;-49
2023/08/12 08:53:37;;;;;;;167.68;19.10;;;;;;;25.36;100.00;98689.41;4192806;28;20230;-50
2023/08/12 08:55:41;;;;;;;5.72;5.22;;;;;;;25.79;100.00;98697.44;4186540;28;20207;-49
2023/08/12 08:57:44;;;;;;;83.53;10.38;;;;;;;26.01;100.00;98700.72;4199733;28;20595;-48
2023/08/12 08:59:49;;;;;;;333.50;28.50;;;;;;;25.82;98.37;98703.19;4192129;28;20261;-49
2023/08/12 09:01:59;;;;;;;4.47;4.07;;;;;;;25.12;100.00;98694.81;4184350;28;20208;-49
2023/08/12 09:04:03;;;;;;;4.55;4.10;;;;;;;25.02;100.00;98700.84;4174772;28;20223;-49
2023/08/12 09:06:05;;;;;;;4.15;3.75;;;;;;;25.13;100.00;98693.66;4185798;28;20199;-48
2023/08/12 09:08:10;;;;;;;6.13;3.60;;;;;;;25.15;100.00;98696.13;4192239;28;20230;-49
2023/08/12 09:10:12;;;;;;;4.65;4.13;;;;;;;25.03;100.00;98710.88;4174820;28;20210;-51
2023/08/12 09:12:16;;;;;;;4.55;3.75;;;;;;;24.92;100.00;98729.22;4191628;28;20203;-50
2023/08/12 09:14:18;;;;;;;4.28;3.88;;;;;;;24.68;100.00;98734.63;4192379;28;20254;-48
2023/08/12 09:16:20;;;;;;;3.80;3.50;;;;;;;24.35;100.00;98741.97;4192336;28;20264;-47
2023/08/12 09:18:24;;;;;;;4.63;4.28;;;;;;;24.08;100.00;98742.38;4192227;28;20210;-48
2023/08/12 09:20:26;;;;;;;8.05;6.07;;;;;;;24.20;100.00;98728.50;4190752;28;20207;-48
2023/08/12 09:22:28;;;;;;;22.77;5.30;;;;;;;24.07;100.00;98723.94;4194423;28;20203;-53
2023/08/12 09:24:30;;;;;;;4.80;4.40;;;;;;;23.89;100.00;98743.06;4192451;28;20202;-50
2023/08/12 09:26:32;;;;;;;4.10;3.72;;;;;;;23.84;100.00;98741.22;4176142;28;20215;-48
2023/08/12 09:28:35;;;;;;;7.00;4.85;;;;;;;23.70;100.00;98745.34;4207237;28;20206;-51